Time;durP1;ratioP1;P1;durP2;ratioP2;P2;SDS_P1;SDS_P2;PMS_P1;PMS_P2;Temp;Humidity;BMP_temperature;BMP_pressure;BME280_temperature;BME280_humidity;BME280_pressure;Samples;Min_cycle;Max_cycle;Signal;HPM_P1;HPM_P2
2022/08/06 00:00:49;;;;;;;0.60;0.40;;;22.00;1.00;;;;;;5138824;27;20527;-72
2022/08/06 00:03:16;;;;;;;0.40;0.30;;;22.00;1.00;;;;;;5138483;27;20479;-71
2022/08/06 00:05:43;;;;;;;2.43;0.50;;;22.10;1.00;;;;;;5137656;27;20855;-71
2022/08/06 00:08:10;;;;;;;0.67;0.50;;;22.10;1.00;;;;;;5137825;27;20506;-72
2022/08/06 00:10:39;;;;;;;0.47;0.30;;;22.00;1.00;;;;;;5136026;27;20679;-71
2022/08/06 00:13:05;;;;;;;0.50;0.40;;;21.90;1.00;;;;;;5136234;27;20698;-71
2022/08/06 00:15:33;;;;;;;0.50;0.30;;;21.90;1.00;;;;;;5137280;27;20452;-71
2022/08/06 00:18:00;;;;;;;0.60;0.40;;;21.90;1.00;;;;;;5136945;27;20871;-71
2022/08/06 00:20:26;;;;;;;0.60;0.40;;;21.80;1.00;;;;;;5136108;27;20895;-71
2022/08/06 00:22:53;;;;;;;0.60;0.40;;;21.80;1.00;;;;;;5137442;27;20455;-71
2022/08/06 00:25:21;;;;;;;0.80;0.40;;;21.80;1.00;;;;;;5137101;27;20487;-72
2022/08/06 00:27:49;;;;;;;0.57;0.37;;;21.80;1.00;;;;;;5137506;28;20515;-72
2022/08/06 00:30:16;;;;;;;0.80;0.40;;;21.80;1.00;;;;;;5137170;27;20501;-72
2022/08/06 00:32:43;;;;;;;0.70;0.40;;;21.90;1.00;;;;;;5136304;27;20476;-71
2022/08/06 00:35:10;;;;;;;0.60;0.37;;;21.90;1.00;;;;;;5136241;27;20771;-70
2022/08/06 00:37:37;;;;;;;0.50;0.40;;;21.80;1.00;;;;;;5136246;27;20452;-72
2022/08/06 00:40:05;;;;;;;0.50;0.40;;;21.70;1.00;;;;;;5136415;27;20926;-72
2022/08/06 00:42:32;;;;;;;0.77;0.50;;;21.70;1.00;;;;;;5136974;27;20451;-71
2022/08/06 00:45:00;;;;;;;0.87;0.50;;;21.80;1.00;;;;;;5136812;27;20471;-71
2022/08/06 00:47:27;;;;;;;0.70;0.40;;;21.90;1.00;;;;;;5137493;27;20860;-73
2022/08/06 00:49:54;;;;;;;0.73;0.40;;;21.90;1.00;;;;;;5136916;27;20817;-71
2022/08/06 00:52:21;;;;;;;0.60;0.30;;;21.80;1.00;;;;;;5136514;27;20460;-72
2022/08/06 00:54:48;;;;;;;3.13;0.50;;;21.80;1.00;;;;;;5137018;27;20447;-71
2022/08/06 00:57:15;;;;;;;0.67;0.40;;;21.90;1.00;;;;;;5136722;28;20448;-72
2022/08/06 00:59:42;;;;;;;0.50;0.37;;;22.00;1.00;;;;;;5136630;27;20891;-71
2022/08/06 01:02:10;;;;;;;1.00;0.50;;;22.00;1.00;;;;;;5136780;28;20459;-72
2022/08/06 01:04:38;;;;;;;0.60;0.30;;;22.00;1.00;;;;;;5137059;28;20499;-72
2022/08/06 01:07:05;;;;;;;0.50;0.40;;;21.90;1.00;;;;;;5136906;28;20483;-72
2022/08/06 01:09:32;;;;;;;0.50;0.33;;;21.80;1.00;;;;;;5136877;28;20515;-72
2022/08/06 01:11:59;;;;;;;0.60;0.40;;;21.70;1.00;;;;;;5136645;27;20484;-74
2022/08/06 01:14:26;;;;;;;0.70;0.37;;;21.70;1.00;;;;;;5136777;27;20878;-73
2022/08/06 01:17:02;;;;;;;0.70;0.40;;;21.70;1.00;;;;;;5136896;27;20455;-72
2022/08/06 01:19:47;;;;;;;0.80;0.43;;;21.60;1.00;;;;;;5136638;27;20511;-72
2022/08/06 01:22:27;;;;;;;0.80;0.50;;;21.60;1.00;;;;;;5137085;27;20508;-73
2022/08/06 01:25:29;;;;;;;0.60;0.40;;;21.70;1.00;;;;;;5136602;27;20475;-73
2022/08/06 01:28:00;;;;;;;0.50;0.33;;;21.50;1.00;;;;;;5053139;28;20569;-73
2022/08/06 01:30:31;;;;;;;0.80;0.40;;;21.40;1.00;;;;;;5122888;27;20791;-73
2022/08/06 01:33:02;;;;;;;0.40;0.30;;;21.50;1.00;;;;;;5136163;27;20809;-72
2022/08/06 01:35:35;;;;;;;1.53;0.40;;;21.40;1.00;;;;;;5136687;27;20520;-70
2022/08/06 01:38:07;;;;;;;0.60;0.30;;;21.30;1.00;;;;;;5136761;27;20439;-72
2022/08/06 01:40:37;;;;;;;0.77;0.40;;;21.40;1.00;;;;;;5136568;27;20475;-73
2022/08/06 01:43:09;;;;;;;1.10;0.30;;;21.50;1.00;;;;;;5136228;27;20565;-73
2022/08/06 01:45:39;;;;;;;0.40;0.30;;;21.50;1.00;;;;;;5139616;27;20487;-73
2022/08/06 01:48:10;;;;;;;0.50;0.30;;;21.50;1.00;;;;;;5140542;27;20475;-73
2022/08/06 01:50:41;;;;;;;0.47;0.37;;;21.50;1.00;;;;;;5139606;27;20542;-73
2022/08/06 01:53:14;;;;;;;0.50;0.40;;;21.50;1.00;;;;;;5139533;27;20448;-73
2022/08/06 01:55:44;;;;;;;0.40;0.30;;;21.50;1.00;;;;;;5139631;27;20451;-72
2022/08/06 01:58:16;;;;;;;0.40;0.30;;;21.50;1.00;;;;;;5139559;27;20440;-72
2022/08/06 02:00:46;;;;;;;0.50;0.30;;;21.30;1.00;;;;;;5139304;27;20535;-73
2022/08/06 02:03:18;;;;;;;0.60;0.30;;;21.10;1.00;;;;;;5139801;27;20444;-73
2022/08/06 02:05:46;;;;;;;0.50;0.30;;;21.00;1.00;;;;;;5138339;27;20500;-73
2022/08/06 02:08:16;;;;;;;0.50;0.40;;;21.00;1.00;;;;;;5138577;27;20999;-73
2022/08/06 02:10:44;;;;;;;0.50;0.40;;;21.00;1.00;;;;;;5138931;27;20456;-75
2022/08/06 02:13:15;;;;;;;0.90;0.40;;;21.00;1.00;;;;;;5138865;27;20511;-73
2022/08/06 02:15:44;;;;;;;0.43;0.40;;;21.00;1.00;;;;;;5138823;27;20452;-71
2022/08/06 02:18:14;;;;;;;0.90;0.40;;;21.00;1.00;;;;;;5139648;27;20487;-72
2022/08/06 02:20:44;;;;;;;0.50;0.40;;;21.00;1.00;;;;;;5139575;27;20491;-71
2022/08/06 02:23:16;;;;;;;0.67;0.40;;;21.00;1.00;;;;;;5138846;27;20874;-71
2022/08/06 02:25:44;;;;;;;0.60;0.33;;;21.00;1.00;;;;;;5139636;27;20544;-71
2022/08/06 02:28:15;;;;;;;0.50;0.33;;;21.00;1.00;;;;;;5139721;27;20483;-71
2022/08/06 02:30:44;;;;;;;0.60;0.40;;;21.00;1.00;;;;;;5139075;27;20479;-72
2022/08/06 02:33:13;;;;;;;0.40;0.30;;;20.90;1.00;;;;;;5138818;27;20530;-72
2022/08/06 02:35:45;;;;;;;0.80;0.30;;;20.90;1.00;;;;;;5138919;27;20520;-72
2022/08/06 02:38:17;;;;;;;0.50;0.40;;;20.90;1.00;;;;;;5139086;27;20479;-72
2022/08/06 02:40:50;;;;;;;0.50;0.40;;;21.00;1.00;;;;;;5139150;27;20964;-71
2022/08/06 02:43:24;;;;;;;0.60;0.40;;;20.90;1.00;;;;;;5138476;27;20492;-72
2022/08/06 02:45:58;;;;;;;1.90;0.30;;;20.80;1.00;;;;;;5139029;27;20452;-72
2022/08/06 02:48:29;;;;;;;0.50;0.30;;;20.50;1.00;;;;;;5138834;27;20482;-72
2022/08/06 02:50:58;;;;;;;1.10;0.40;;;20.30;1.00;;;;;;5138619;27;20471;-72
2022/08/06 02:53:31;;;;;;;0.97;0.30;;;20.40;1.00;;;;;;5138640;27;20520;-72
2022/08/06 02:56:04;;;;;;;0.50;0.40;;;20.40;1.00;;;;;;5138319;27;20538;-72
2022/08/06 02:58:36;;;;;;;0.80;0.40;;;20.40;1.00;;;;;;5138489;27;20943;-73
2022/08/06 03:01:07;;;;;;;0.70;0.40;;;20.40;1.00;;;;;;5138710;27;20448;-72
2022/08/06 03:03:35;;;;;;;0.50;0.30;;;20.40;1.00;;;;;;5138337;27;20532;-72
2022/08/06 03:06:05;;;;;;;0.50;0.30;;;20.30;1.00;;;;;;5138380;27;20436;-72
2022/08/06 03:08:33;;;;;;;0.70;0.30;;;20.30;1.00;;;;;;5137859;27;20582;-72
2022/08/06 03:11:02;;;;;;;0.60;0.40;;;20.40;1.00;;;;;;5138636;27;20460;-72
2022/08/06 03:13:30;;;;;;;0.50;0.40;;;20.40;1.00;;;;;;5137983;27;20475;-72
2022/08/06 03:16:01;;;;;;;0.67;0.40;;;20.40;1.00;;;;;;5138530;27;20502;-72
2022/08/06 03:18:28;;;;;;;0.60;0.40;;;20.40;1.00;;;;;;5138074;27;20444;-72
2022/08/06 03:20:56;;;;;;;0.60;0.40;;;20.40;1.00;;;;;;5138330;27;20778;-72
2022/08/06 03:23:24;;;;;;;0.80;0.50;;;20.50;1.00;;;;;;5138414;27;20519;-72
2022/08/06 03:25:53;;;;;;;0.40;0.30;;;20.50;1.00;;;;;;5138147;27;20534;-72
2022/08/06 03:28:21;;;;;;;0.70;0.47;;;20.50;1.00;;;;;;5138038;27;20519;-72
2022/08/06 03:30:48;;;;;;;0.50;0.30;;;20.40;1.00;;;;;;5138145;27;20500;-72
2022/08/06 03:33:17;;;;;;;0.50;0.40;;;20.30;1.00;;;;;;5137051;27;20535;-72
2022/08/06 03:35:45;;;;;;;0.60;0.40;;;20.30;1.00;;;;;;5137999;27;20455;-72
2022/08/06 03:38:13;;;;;;;0.50;0.30;;;20.40;1.00;;;;;;5137764;27;20800;-72
2022/08/06 03:40:45;;;;;;;0.90;0.40;;;20.50;1.00;;;;;;5137551;27;20491;-72
2022/08/06 03:43:12;;;;;;;0.43;0.30;;;20.60;1.00;;;;;;5138143;27;20899;-72
2022/08/06 03:45:49;;;;;;;0.60;0.40;;;20.60;1.00;;;;;;5137728;27;20460;-72
2022/08/06 03:48:24;;;;;;;0.70;0.47;;;20.50;1.00;;;;;;5137741;27;20921;-71
2022/08/06 03:50:54;;;;;;;0.57;0.40;;;20.40;1.00;;;;;;5137374;27;20866;-73
2022/08/06 03:53:25;;;;;;;0.50;0.40;;;20.40;1.00;;;;;;5137264;27;20443;-73
2022/08/06 03:55:56;;;;;;;0.50;0.40;;;20.50;1.00;;;;;;5137507;27;20459;-72
2022/08/06 03:58:24;;;;;;;0.53;0.40;;;20.30;1.00;;;;;;5137378;27;20477;-73
2022/08/06 04:00:54;;;;;;;0.60;0.37;;;20.20;1.00;;;;;;5137373;27;20950;-72
2022/08/06 04:03:26;;;;;;;0.70;0.30;;;20.20;1.00;;;;;;5137739;27;20919;-72
2022/08/06 04:05:54;;;;;;;1.60;0.40;;;20.40;1.00;;;;;;5137085;27;20542;-72
2022/08/06 04:08:22;;;;;;;1.27;0.30;;;20.40;1.00;;;;;;5137327;27;20484;-72
2022/08/06 04:10:50;;;;;;;1.23;0.40;;;20.60;1.00;;;;;;5137265;27;20495;-73
2022/08/06 04:13:19;;;;;;;0.60;0.40;;;20.60;1.00;;;;;;5137439;27;20511;-72
2022/08/06 04:15:47;;;;;;;0.50;0.40;;;20.50;1.00;;;;;;5137454;27;20495;-72
2022/08/06 04:18:16;;;;;;;0.70;0.40;;;20.40;1.00;;;;;;5137162;27;20444;-72
2022/08/06 04:20:47;;;;;;;0.80;0.50;;;20.30;1.00;;;;;;5137124;27;20519;-72
2022/08/06 04:23:14;;;;;;;0.60;0.40;;;20.00;1.00;;;;;;5137235;27;20515;-72
2022/08/06 04:25:44;;;;;;;0.60;0.40;;;19.80;1.00;;;;;;5137321;27;20532;-72
2022/08/06 04:28:13;;;;;;;0.60;0.40;;;19.70;1.00;;;;;;5137704;27;20448;-72
2022/08/06 04:30:41;;;;;;;0.77;0.40;;;19.90;1.00;;;;;;5136787;28;20807;-72
2022/08/06 04:33:13;;;;;;;1.37;0.40;;;19.90;1.00;;;;;;5136504;27;20808;-71
2022/08/06 04:35:41;;;;;;;0.60;0.40;;;20.00;1.00;;;;;;5136566;28;20762;-73
2022/08/06 04:38:11;;;;;;;0.80;0.40;;;20.00;1.00;;;;;;5136783;28;20483;-73
2022/08/06 04:40:38;;;;;;;0.70;0.50;;;20.20;1.00;;;;;;5136798;27;20881;-72
2022/08/06 04:43:06;;;;;;;0.90;0.40;;;20.20;1.00;;;;;;5137634;27;20482;-72
2022/08/06 04:45:34;;;;;;;0.50;0.40;;;20.30;1.00;;;;;;5136631;27;20448;-72
2022/08/06 04:48:03;;;;;;;0.57;0.40;;;20.20;1.00;;;;;;5136208;28;21008;-72
2022/08/06 04:50:31;;;;;;;0.50;0.40;;;20.10;1.00;;;;;;5135595;28;20556;-72
2022/08/06 04:53:06;;;;;;;0.57;0.30;;;20.10;1.00;;;;;;5136136;28;20498;-72
2022/08/06 04:55:35;;;;;;;0.50;0.30;;;20.10;1.00;;;;;;5136034;28;20970;-72
2022/08/06 04:58:03;;;;;;;0.50;0.30;;;20.10;1.00;;;;;;5136034;27;20551;-72
2022/08/06 05:00:30;;;;;;;1.70;0.40;;;20.10;1.00;;;;;;5135103;27;20941;-71
2022/08/06 05:02:57;;;;;;;0.60;0.40;;;20.20;1.00;;;;;;5135780;27;20512;-72
2022/08/06 05:05:24;;;;;;;0.50;0.40;;;20.20;1.00;;;;;;5135147;27;20451;-72
2022/08/06 05:07:54;;;;;;;0.50;0.40;;;20.20;1.00;;;;;;5135656;27;20480;-73
2022/08/06 05:10:23;;;;;;;0.60;0.33;;;20.20;1.00;;;;;;5135264;28;20484;-72
2022/08/06 05:12:56;;;;;;;0.77;0.50;;;20.10;1.00;;;;;;5135711;28;20782;-73
2022/08/06 05:15:29;;;;;;;0.50;0.40;;;20.30;1.00;;;;;;5136471;28;20508;-73
2022/08/06 05:18:01;;;;;;;0.50;0.40;;;20.20;1.00;;;;;;5138390;27;20570;-72
2022/08/06 05:20:32;;;;;;;0.60;0.40;;;20.10;1.00;;;;;;5140667;27;20452;-73
2022/08/06 05:23:03;;;;;;;0.80;0.40;;;19.80;1.00;;;;;;5140548;27;20490;-73
2022/08/06 05:25:31;;;;;;;1.70;0.40;;;19.90;1.00;;;;;;5139598;27;20502;-73
2022/08/06 05:28:00;;;;;;;0.63;0.40;;;20.00;1.00;;;;;;5140314;27;20532;-72
2022/08/06 05:30:28;;;;;;;0.60;0.50;;;19.80;1.00;;;;;;5139563;27;20534;-72
2022/08/06 05:32:59;;;;;;;0.80;0.50;;;19.90;1.00;;;;;;5139846;27;20968;-72
2022/08/06 05:35:26;;;;;;;3.23;0.40;;;19.90;1.00;;;;;;5139991;27;20490;-72
2022/08/06 05:37:53;;;;;;;0.50;0.40;;;19.80;1.00;;;;;;5140245;27;20512;-72
2022/08/06 05:40:20;;;;;;;1.10;0.40;;;20.00;1.00;;;;;;5140212;27;20934;-73
2022/08/06 05:42:49;;;;;;;0.50;0.40;;;20.10;1.00;;;;;;5140527;27;20479;-72
2022/08/06 05:45:19;;;;;;;0.70;0.40;;;20.00;1.00;;;;;;5140077;27;20440;-71
2022/08/06 05:47:47;;;;;;;1.20;0.40;;;19.90;1.00;;;;;;5140320;27;20497;-71
2022/08/06 05:50:19;;;;;;;1.03;0.50;;;19.70;1.00;;;;;;5139976;27;20782;-72
2022/08/06 05:52:51;;;;;;;0.53;0.40;;;19.70;1.00;;;;;;5140245;27;20458;-72
2022/08/06 05:55:31;;;;;;;12.87;9.60;;;19.70;1.00;;;;;;5139926;27;20479;-72
2022/08/06 05:58:01;;;;;;;3.33;2.20;;;19.80;1.00;;;;;;5132368;27;20447;-71
2022/08/06 06:00:33;;;;;;;1.60;0.63;;;19.70;1.00;;;;;;5134706;27;20448;-72
2022/08/06 06:03:03;;;;;;;2.13;1.80;;;19.60;1.00;;;;;;5133325;27;20452;-72
2022/08/06 06:05:31;;;;;;;1.40;0.60;;;19.60;1.00;;;;;;5136713;27;21293;-73
2022/08/06 06:07:58;;;;;;;0.70;0.50;;;19.60;1.00;;;;;;5132694;27;20447;-72
2022/08/06 06:10:26;;;;;;;0.70;0.50;;;19.60;1.00;;;;;;5132851;27;20574;-72
2022/08/06 06:12:55;;;;;;;1.33;0.50;;;19.50;1.00;;;;;;5137514;27;20822;-71
2022/08/06 06:15:22;;;;;;;0.80;0.40;;;19.60;6.10;;;;;;5129046;27;20459;-72
2022/08/06 06:18:02;;;;;;;0.63;0.40;;;19.80;1.00;;;;;;5137825;27;20535;-71
2022/08/06 06:20:41;;;;;;;0.80;0.50;;;19.80;1.00;;;;;;5128382;27;20876;-72
2022/08/06 06:23:14;;;;;;;0.60;0.50;;;19.80;1.00;;;;;;5137994;27;20519;-71
2022/08/06 06:25:47;;;;;;;0.60;0.40;;;19.80;1.00;;;;;;5128150;27;20871;-71
2022/08/06 06:28:22;;;;;;;2.50;0.60;;;19.90;1.00;;;;;;5137697;27;20444;-72
2022/08/06 06:30:59;;;;;;;1.13;0.60;;;20.00;1.00;;;;;;5125327;27;20961;-73
2022/08/06 06:33:40;;;;;;;0.60;0.50;;;19.90;1.00;;;;;;5131710;27;20465;-73
2022/08/06 06:36:17;;;;;;;0.70;0.50;;;20.00;1.00;;;;;;5126619;27;20597;-70
2022/08/06 06:38:53;;;;;;;1.70;0.40;;;20.10;1.00;;;;;;5137822;27;20906;-72
2022/08/06 06:41:34;;;;;;;0.73;0.40;;;20.20;1.00;;;;;;5130243;27;20915;-72
2022/08/06 06:44:09;;;;;;;0.70;0.50;;;20.20;1.00;;;;;;5137449;27;20544;-72
2022/08/06 06:46:40;;;;;;;0.60;0.50;;;20.40;1.00;;;;;;5130019;27;20455;-72
2022/08/06 06:49:15;;;;;;;0.60;0.50;;;20.50;1.00;;;;;;5134961;27;20816;-72
2022/08/06 06:51:44;;;;;;;0.50;0.40;;;20.70;1.00;;;;;;5118242;27;20900;-71
2022/08/06 06:54:18;;;;;;;0.60;0.40;;;20.70;1.00;;;;;;5135640;27;20471;-72
2022/08/06 06:56:49;;;;;;;0.60;0.40;;;20.60;1.00;;;;;;5122116;27;20522;-71
2022/08/06 06:59:19;;;;;;;0.73;0.50;;;20.80;1.00;;;;;;5133231;27;20979;-72
2022/08/06 07:01:48;;;;;;;0.50;0.40;;;21.00;1.00;;;;;;5137304;27;20613;-72
2022/08/06 07:04:18;;;;;;;0.70;0.50;;;21.20;1.00;;;;;;5130381;27;20528;-71
2022/08/06 07:06:47;;;;;;;0.70;0.50;;;21.10;1.00;;;;;;5138089;27;20458;-72
2022/08/06 07:09:17;;;;;;;0.50;0.40;;;21.10;1.00;;;;;;5128714;27;20539;-71
2022/08/06 07:11:45;;;;;;;0.57;0.40;;;21.00;1.00;;;;;;5133593;27;20547;-72
2022/08/06 07:14:14;;;;;;;0.73;0.50;;;20.90;1.00;;;;;;5128667;27;21146;-71
2022/08/06 07:16:44;;;;;;;0.67;0.47;;;20.90;1.00;;;;;;5136347;27;20483;-71
2022/08/06 07:19:12;;;;;;;2.33;0.70;;;20.80;1.00;;;;;;5127996;27;20464;-71
2022/08/06 07:21:43;;;;;;;0.53;0.47;;;20.90;1.00;;;;;;5130137;27;20460;-72
2022/08/06 07:24:12;;;;;;;3.53;0.60;;;20.90;1.00;;;;;;5119610;27;20436;-71
2022/08/06 07:26:39;;;;;;;0.80;0.40;;;21.00;1.00;;;;;;5129626;27;20451;-71
2022/08/06 07:29:09;;;;;;;0.60;0.50;;;20.90;1.00;;;;;;5135638;27;20519;-71
2022/08/06 07:31:37;;;;;;;1.10;0.50;;;20.90;1.00;;;;;;5125426;27;20941;-71
2022/08/06 07:34:04;;;;;;;1.57;0.50;;;20.90;1.00;;;;;;5142385;27;20527;-71
2022/08/06 07:36:34;;;;;;;0.60;0.40;;;20.90;1.00;;;;;;5131469;27;20777;-71
2022/08/06 07:39:05;;;;;;;0.70;0.60;;;21.10;1.00;;;;;;5130797;27;21020;-71
2022/08/06 07:41:35;;;;;;;0.70;0.40;;;21.10;1.00;;;;;;5121133;27;20498;-70
2022/08/06 07:44:04;;;;;;;1.00;0.50;;;21.10;1.00;;;;;;5131163;27;20543;-72
2022/08/06 07:46:35;;;;;;;0.63;0.50;;;21.10;1.00;;;;;;5140905;27;20546;-72
2022/08/06 07:49:05;;;;;;;0.70;0.60;;;21.20;1.00;;;;;;5126797;27;20808;-72
2022/08/06 07:51:35;;;;;;;1.47;1.37;;;21.10;1.00;;;;;;5138889;27;20480;-72
2022/08/06 07:54:05;;;;;;;0.60;0.50;;;21.30;1.00;;;;;;5122662;27;20479;-72
2022/08/06 07:56:32;;;;;;;0.80;0.60;;;21.50;1.00;;;;;;5132331;27;20460;-73
2022/08/06 07:59:00;;;;;;;0.60;0.40;;;21.50;1.00;;;;;;5130509;27;20513;-72
2022/08/06 08:01:28;;;;;;;0.70;0.50;;;21.70;1.00;;;;;;5138030;27;20546;-72
2022/08/06 08:06:41;;;;;;;1.07;0.60;;;21.80;1.00;;;;;;5135376;27;20419;-71
2022/08/06 08:09:14;;;;;;;0.90;0.50;;;21.80;1.00;;;;;;5129753;27;20456;-73
2022/08/06 08:11:42;;;;;;;2.93;0.60;;;21.70;1.00;;;;;;5130436;27;20608;-73
2022/08/06 08:14:10;;;;;;;0.50;0.40;;;21.70;1.00;;;;;;5132075;27;20546;-72
2022/08/06 08:16:40;;;;;;;0.60;0.50;;;21.60;1.00;;;;;;5127039;27;20887;-72
2022/08/06 08:19:22;;;;;;;1.53;0.67;;;21.70;1.00;;;;;;5128215;27;20463;-71
2022/08/06 08:21:49;;;;;;;0.90;0.50;;;21.70;1.00;;;;;;5134115;27;20534;-72
2022/08/06 08:24:17;;;;;;;0.93;0.50;;;21.70;1.00;;;;;;5136300;27;20447;-71
2022/08/06 08:26:44;;;;;;;1.33;0.63;;;21.90;1.00;;;;;;5122984;27;20483;-72
2022/08/06 08:29:11;;;;;;;0.60;0.50;;;22.20;1.00;;;;;;5133687;27;20483;-71
2022/08/06 08:31:38;;;;;;;0.70;0.63;;;22.50;1.00;;;;;;5127697;27;20537;-71
2022/08/06 08:34:06;;;;;;;1.43;0.57;;;22.60;1.00;;;;;;5135777;27;20629;-72
2022/08/06 08:36:33;;;;;;;1.37;0.50;;;22.80;1.00;;;;;;5131361;27;20481;-71
2022/08/06 08:39:01;;;;;;;0.70;0.50;;;22.90;1.00;;;;;;5134850;27;20494;-72
2022/08/06 08:41:34;;;;;;;0.50;0.50;;;23.10;1.00;;;;;;5133161;28;20718;-72
2022/08/06 08:44:04;;;;;;;0.60;0.50;;;23.30;1.00;;;;;;5129138;27;20495;-72
2022/08/06 08:46:34;;;;;;;1.47;0.57;;;23.30;1.00;;;;;;5134741;27;20519;-73
2022/08/06 08:49:04;;;;;;;0.70;0.50;;;23.20;1.00;;;;;;5126129;27;20558;-72
2022/08/06 08:51:34;;;;;;;0.70;0.50;;;23.10;1.00;;;;;;5119622;27;20941;-72
2022/08/06 08:54:03;;;;;;;1.13;0.60;;;23.10;1.00;;;;;;5130629;27;20459;-73
2022/08/06 08:56:33;;;;;;;0.60;0.50;;;23.20;1.00;;;;;;5140110;27;20500;-72
2022/08/06 08:59:00;;;;;;;0.90;0.50;;;23.10;1.00;;;;;;5130322;27;21077;-72
2022/08/06 09:01:27;;;;;;;1.37;0.50;;;23.00;1.00;;;;;;5137966;27;20522;-73
2022/08/06 09:03:54;;;;;;;0.60;0.60;;;23.10;1.00;;;;;;5134299;27;20506;-73
2022/08/06 09:06:23;;;;;;;0.50;0.50;;;23.10;1.00;;;;;;5137540;27;20562;-73
2022/08/06 09:08:51;;;;;;;1.00;0.50;;;23.30;1.00;;;;;;5135972;27;20487;-73
2022/08/06 09:11:18;;;;;;;0.63;0.50;;;23.50;1.00;;;;;;5135477;27;20993;-73
2022/08/06 09:13:46;;;;;;;0.77;0.60;;;23.40;1.00;;;;;;5138894;27;20492;-72
2022/08/06 09:16:13;;;;;;;1.30;0.53;;;23.00;1.00;;;;;;5128812;27;20462;-72
2022/08/06 09:18:40;;;;;;;0.60;0.50;;;22.90;1.00;;;;;;5137770;27;22113;-73
2022/08/06 09:21:07;;;;;;;0.50;0.43;;;22.70;1.00;;;;;;5131635;27;20532;-73
2022/08/06 09:23:39;;;;;;;0.50;0.50;;;22.70;1.00;;;;;;5139124;27;20499;-73
2022/08/06 09:26:06;;;;;;;0.60;0.40;;;22.70;1.00;;;;;;5127740;27;20533;-73
2022/08/06 09:28:35;;;;;;;1.27;0.50;;;22.80;1.00;;;;;;5138413;27;20460;-71
2022/08/06 09:31:06;;;;;;;0.80;0.60;;;22.70;1.00;;;;;;5133821;27;20778;-71
2022/08/06 09:33:36;;;;;;;0.77;0.60;;;22.80;1.00;;;;;;5135115;27;20536;-71
2022/08/06 09:36:05;;;;;;;1.37;0.50;;;23.00;1.00;;;;;;5136724;27;20463;-71
2022/08/06 09:38:33;;;;;;;0.80;0.50;;;23.10;1.00;;;;;;5129125;27;20455;-71
2022/08/06 09:41:05;;;;;;;0.80;0.50;;;23.50;1.00;;;;;;5140972;27;20541;-70
2022/08/06 09:43:32;;;;;;;0.70;0.60;;;23.60;1.00;;;;;;5127096;27;20495;-72
2022/08/06 09:45:59;;;;;;;0.80;0.60;;;23.50;1.00;;;;;;5135076;27;20819;-71
2022/08/06 09:48:28;;;;;;;0.73;0.43;;;23.40;1.00;;;;;;5129568;27;21730;-72
2022/08/06 09:50:54;;;;;;;0.90;0.60;;;23.10;1.00;;;;;;5136621;27;20559;-73
2022/08/06 09:53:22;;;;;;;0.60;0.50;;;23.10;1.00;;;;;;5129476;27;20520;-72
2022/08/06 09:55:50;;;;;;;0.60;0.50;;;23.40;1.00;;;;;;5136529;27;20444;-72
2022/08/06 09:58:28;;;;;;;0.60;0.50;;;23.60;1.00;;;;;;5123391;27;20452;-72
2022/08/06 10:00:56;;;;;;;0.87;0.40;;;23.90;1.00;;;;;;5133370;27;20910;-72
2022/08/06 10:03:23;;;;;;;3.80;0.50;;;24.10;1.00;;;;;;5122463;27;20464;-72
2022/08/06 10:06:05;;;;;;;0.80;0.50;;;24.30;1.00;;;;;;5128730;27;20509;-73
2022/08/06 10:08:32;;;;;;;1.00;0.50;;;24.20;1.00;;;;;;5139412;27;20505;-73
2022/08/06 10:11:02;;;;;;;0.73;0.53;;;24.20;1.00;;;;;;5128576;27;20507;-72
2022/08/06 10:13:31;;;;;;;0.73;0.60;;;24.20;1.00;;;;;;5137841;27;20529;-72
2022/08/06 10:15:59;;;;;;;0.90;0.50;;;24.10;1.00;;;;;;5126811;27;20458;-73
2022/08/06 10:18:37;;;;;;;0.70;0.50;;;23.80;1.00;;;;;;5138587;27;20451;-72
2022/08/06 10:21:08;;;;;;;2.80;0.60;;;23.70;1.00;;;;;;5126173;27;20548;-71
2022/08/06 10:23:40;;;;;;;0.90;0.60;;;23.60;1.00;;;;;;5136089;27;20449;-71
2022/08/06 10:26:09;;;;;;;1.20;0.60;;;23.80;1.00;;;;;;5136463;27;20203;-71
2022/08/06 10:28:37;;;;;;;0.60;0.43;;;23.50;1.00;;;;;;5124134;27;20558;-73
2022/08/06 10:31:07;;;;;;;0.70;0.60;;;23.40;1.00;;;;;;5134052;27;20840;-71
2022/08/06 10:33:40;;;;;;;1.27;0.63;;;23.60;1.00;;;;;;5127643;27;20528;-72
2022/08/06 10:36:12;;;;;;;2.10;0.50;;;23.50;1.00;;;;;;5138260;27;20436;-73
2022/08/06 10:38:42;;;;;;;0.60;0.60;;;23.60;1.00;;;;;;5125793;27;20858;-72
2022/08/06 10:41:10;;;;;;;1.43;0.60;;;23.90;1.00;;;;;;5135858;27;20901;-73
2022/08/06 10:43:40;;;;;;;0.60;0.50;;;24.60;1.00;;;;;;5131404;27;20539;-73
2022/08/06 10:46:09;;;;;;;0.60;0.60;;;25.10;1.00;;;;;;5138003;27;20497;-73
2022/08/06 10:48:37;;;;;;;0.70;0.60;;;24.70;1.00;;;;;;5128525;27;20506;-73
2022/08/06 10:51:07;;;;;;;0.70;0.50;;;24.60;1.00;;;;;;5136540;27;20476;-73
2022/08/06 10:53:43;;;;;;;0.70;0.57;;;24.50;1.00;;;;;;5136662;27;20502;-73
2022/08/06 10:56:11;;;;;;;1.10;0.53;;;24.50;1.00;;;;;;5121866;27;20755;-72
2022/08/06 10:58:39;;;;;;;0.57;0.50;;;24.30;1.00;;;;;;5118266;28;20456;-73
2022/08/06 11:01:09;;;;;;;0.73;0.40;;;24.50;1.00;;;;;;5136406;27;20936;-73
2022/08/06 11:03:55;;;;;;;0.80;0.60;;;24.70;1.00;;;;;;5138652;27;20451;-74
2022/08/06 11:06:44;;;;;;;0.80;0.60;;;25.30;1.00;;;;;;5137403;27;20818;-73
2022/08/06 11:09:29;;;;;;;0.60;0.50;;;26.00;1.00;;;;;;5136715;27;21105;-73
2022/08/06 11:12:19;;;;;;;1.00;0.50;;;26.00;1.00;;;;;;5135343;27;20476;-74
2022/08/06 11:14:47;;;;;;;0.70;0.60;;;26.10;1.00;;;;;;5137313;27;20485;-73
2022/08/06 11:17:14;;;;;;;0.70;0.53;;;26.30;1.00;;;;;;5134645;27;20450;-74
2022/08/06 11:19:44;;;;;;;0.80;0.60;;;26.10;1.00;;;;;;5135170;27;20471;-75
2022/08/06 11:22:34;;;;;;;1.83;0.60;;;25.70;1.00;;;;;;5134540;27;20440;-72
2022/08/06 11:25:04;;;;;;;0.60;0.50;;;25.80;1.00;;;;;;5128827;27;20837;-74
2022/08/06 11:27:52;;;;;;;0.67;0.53;;;26.10;1.00;;;;;;5118174;27;20550;-74
2022/08/06 11:30:23;;;;;;;1.00;0.50;;;25.90;1.00;;;;;;5136876;27;20542;-75
2022/08/06 11:32:53;;;;;;;1.33;0.60;;;25.60;1.00;;;;;;5135826;27;20582;-74
2022/08/06 11:35:46;;;;;;;0.60;0.50;;;25.60;1.00;;;;;;5137651;27;20966;-74
2022/08/06 11:38:15;;;;;;;0.60;0.53;;;25.30;1.00;;;;;;5136497;27;20538;-75
2022/08/06 11:41:01;;;;;;;0.60;0.50;;;25.70;1.00;;;;;;5136411;27;20566;-77
2022/08/06 11:43:48;;;;;;;0.90;0.60;;;26.50;1.00;;;;;;5117211;27;20462;-75
2022/08/06 11:46:22;;;;;;;0.90;0.60;;;26.50;1.00;;;;;;5136430;27;20767;-74
2022/08/06 11:49:12;;;;;;;0.60;0.43;;;26.50;1.00;;;;;;5136539;27;20598;-75
2022/08/06 11:51:40;;;;;;;0.97;0.60;;;26.50;1.00;;;;;;5116706;28;20841;-75
2022/08/06 11:54:12;;;;;;;0.80;0.50;;;26.30;1.00;;;;;;5116414;28;20827;-74
2022/08/06 11:57:12;;;;;;;0.70;0.60;;;26.40;1.00;;;;;;5116695;28;20812;-74
2022/08/06 11:59:47;;;;;;;1.30;0.60;;;26.60;1.00;;;;;;5125155;27;21048;-75
2022/08/06 12:02:16;;;;;;;0.50;0.50;;;27.00;1.00;;;;;;5135472;27;20439;-75
2022/08/06 12:04:46;;;;;;;3.70;0.60;;;27.10;1.00;;;;;;5136063;27;20450;-75
2022/08/06 12:07:18;;;;;;;0.70;0.60;;;26.90;1.00;;;;;;5136075;27;20468;-75
2022/08/06 12:09:46;;;;;;;0.60;0.50;;;26.90;1.00;;;;;;5135683;27;20519;-75
2022/08/06 12:12:33;;;;;;;0.70;0.60;;;26.90;1.00;;;;;;5126266;27;20484;-74
2022/08/06 12:15:03;;;;;;;0.77;0.50;;;27.10;1.00;;;;;;5136297;27;20493;-75
2022/08/06 12:17:32;;;;;;;0.70;0.70;;;27.40;1.00;;;;;;5113080;28;20449;-75
2022/08/06 12:20:01;;;;;;;1.30;0.80;;;27.30;1.00;;;;;;5114451;28;20453;-75
2022/08/06 12:22:28;;;;;;;0.70;0.60;;;27.40;1.00;;;;;;5115440;28;20445;-74
2022/08/06 12:24:58;;;;;;;0.80;0.50;;;27.80;1.00;;;;;;5114426;28;20437;-75
2022/08/06 12:27:30;;;;;;;0.70;0.60;;;28.00;1.00;;;;;;5115594;28;20461;-75
2022/08/06 12:29:58;;;;;;;0.70;0.50;;;27.90;1.00;;;;;;5115172;28;20468;-75
2022/08/06 12:32:29;;;;;;;0.70;0.63;;;27.80;1.00;;;;;;5114519;28;20534;-75
2022/08/06 12:34:58;;;;;;;0.60;0.50;;;27.80;1.00;;;;;;5115913;28;20505;-75
2022/08/06 12:37:35;;;;;;;1.17;0.60;;;27.60;1.00;;;;;;5115823;28;20984;-75
2022/08/06 12:42:47;;;;;;;0.77;0.60;;;27.30;1.00;;;;;;5129655;28;20482;-74
2022/08/06 12:45:20;;;;;;;0.60;0.60;;;27.80;1.00;;;;;;5116591;28;20530;-74
2022/08/06 12:47:58;;;;;;;1.00;0.60;;;27.50;1.00;;;;;;5116357;28;20752;-75
2022/08/06 12:50:26;;;;;;;0.77;0.50;;;27.20;1.00;;;;;;5116970;28;20539;-74
2022/08/06 12:53:03;;;;;;;0.77;0.60;;;27.10;1.00;;;;;;5115067;28;20503;-74
2022/08/06 12:55:31;;;;;;;0.70;0.57;;;26.80;1.00;;;;;;5115645;28;20460;-76
2022/08/06 12:58:00;;;;;;;0.73;0.50;;;26.70;1.00;;;;;;5114571;28;20508;-75
2022/08/06 13:00:27;;;;;;;2.03;0.40;;;27.00;1.00;;;;;;5115864;28;20448;-74
2022/08/06 13:02:56;;;;;;;1.20;0.50;;;27.50;1.00;;;;;;5095478;28;20496;-76
2022/08/06 13:05:27;;;;;;;0.80;0.50;;;28.10;1.00;;;;;;5110541;28;20512;-77
2022/08/06 13:07:56;;;;;;;0.70;0.50;;;28.20;1.00;;;;;;5115981;28;20555;-75
2022/08/06 13:10:24;;;;;;;0.73;0.50;;;28.10;1.00;;;;;;5114793;28;20460;-72
2022/08/06 13:12:56;;;;;;;0.90;0.50;;;27.20;1.00;;;;;;5113982;27;20541;-74
2022/08/06 13:15:25;;;;;;;0.80;0.50;;;27.10;1.00;;;;;;5114425;28;20444;-75
2022/08/06 13:18:04;;;;;;;1.33;0.60;;;27.30;1.00;;;;;;5114766;28;20554;-74
2022/08/06 13:20:39;;;;;;;0.70;0.60;;;27.90;1.00;;;;;;5115538;28;20506;-75